Aeroporto :
LOGIN :

Iscrizione | Disclaimer

   EN    FR    IT 

 










Sommario :    VFR   VFR Marginale   IFR   IFR Intensivo   IFR Molto Intensivo
Visibilità : 
Base nubi : 
>= 8 km
>= 3000ft
5 / 8 km
1000 / 3000 ft
1500m / 5 km
500 / 1000 ft
800 / 1500m
200 / 500 ft
< 800m
< 200 ft
Simboli :   Temporali  Nebbia  Neve Forte  Precipitazioni Forti  Vento > 20 kt
SIGMETs :   Varie  Temporali  Ghiacco  Turbolenza  Onda orograficha  Ceneri Vulcaniche






- Altitudine del aeroporto : 751 ft
- Codice IATA : ENC


LFSN - Nancy Essey

ULTIMO METAR :
  • 221600Z AUTO 19007KT 9999 SCT044 SCT120 OVC160 12/04 Q1027

METARs OBSOLETI :
  • 221530Z AUTO 20006KT 180V240 CAVOK 13/03 Q1027
  • 221500Z AUTO 19008KT 160V220 CAVOK 13/03 Q1026
  • 221430Z AUTO 21012KT 170V240 CAVOK 13/01 Q1026
  • 221400Z AUTO 22010KT 190V260 CAVOK 14/01 Q1027
  • 221330Z AUTO 18010KT CAVOK 13/03 Q1026
  • 221300Z AUTO 19009KT CAVOK 13/03 Q1027

Previsioni scadute.



MetMap, La meteo Aeronautica in un colpo d'occhio ! - Copyright ORBIFLY Dicembre 2007 - Disclaimer

ORBIFLY MET'MAP TEAM :

Programmazione e sviluppo : Alexandra Zaïnal
Concezione : Baudouin d'Aumeries
Aiuto per la programmazione : Marc-Olivier Méhu
Supporto tecnico e logistico : Manuel Goepfert
Aiuto per la traduzione : Arnaldo La Scala

Contatto : metmap@orbifly.com




FONTI E CREDITI :

   NOAA